Time;durP1;ratioP1;P1;durP2;ratioP2;P2;SDS_P1;SDS_P2;PMS_P1;PMS_P2;Temp;Humidity;BMP_temperature;BMP_pressure;BME280_temperature;BME280_humidity;BME280_pressure;Samples;Min_cycle;Max_cycle;Signal;HPM_P1;HPM_P2
2023/08/02 00:00:57;;;;;;;7.25;3.65;;;;;;;18.85;75.46;98997.69;6119599;23;20109;-83
2023/08/02 00:03:24;;;;;;;4.43;2.63;;;;;;;18.85;75.43;98990.47;6069376;23;20036;-83
2023/08/02 00:05:54;;;;;;;6.13;2.92;;;;;;;18.81;75.31;98994.59;6071205;23;20017;-82
2023/08/02 00:08:22;;;;;;;6.10;2.95;;;;;;;18.81;75.17;98993.78;6071174;23;20097;-82
2023/08/02 00:10:49;;;;;;;5.38;3.33;;;;;;;18.78;75.11;98992.31;6118757;23;20026;-82
2023/08/02 00:13:15;;;;;;;7.25;2.58;;;;;;;18.78;74.89;98988.81;6118021;23;20046;-83
2023/08/02 00:15:42;;;;;;;11.63;3.58;;;;;;;18.77;75.17;98979.09;6095230;23;20697;-82
2023/08/02 00:18:09;;;;;;;8.32;3.53;;;;;;;18.78;75.13;98976.19;6069072;23;20341;-83
2023/08/02 00:20:37;;;;;;;7.32;3.53;;;;;;;18.77;74.95;98974.53;6069516;23;20104;-83
2023/08/02 00:23:05;;;;;;;8.45;3.90;;;;;;;18.76;75.37;98975.56;6070183;23;20354;-83
2023/08/02 00:25:32;;;;;;;8.15;3.78;;;;;;;18.73;75.81;98975.16;6093550;23;20030;-82
2023/08/02 00:27:59;;;;;;;7.80;3.75;;;;;;;18.74;75.78;98966.03;6118347;23;20044;-82
2023/08/02 00:30:26;;;;;;;13.18;4.13;;;;;;;18.74;75.84;98963.34;6119342;23;21018;-82
2023/08/02 00:32:53;;;;;;;14.98;4.45;;;;;;;18.72;76.02;98951.97;6117995;23;20022;-82
2023/08/02 00:35:20;;;;;;;7.25;4.18;;;;;;;18.71;76.26;98953.81;6092794;23;20092;-83
2023/08/02 00:37:47;;;;;;;8.98;3.88;;;;;;;18.70;76.58;98954.88;6095157;23;21416;-82
2023/08/02 00:40:14;;;;;;;15.07;3.97;;;;;;;18.68;76.84;98948.06;6070983;23;20063;-82
2023/08/02 00:42:41;;;;;;;9.30;3.88;;;;;;;18.65;77.07;98946.59;6069415;23;20084;-83
2023/08/02 00:45:08;;;;;;;17.65;4.03;;;;;;;18.65;77.17;98944.75;6071188;23;20454;-82
2023/08/02 00:47:35;;;;;;;13.52;4.35;;;;;;;18.65;76.99;98938.53;6095046;23;20025;-82
2023/08/02 00:50:03;;;;;;;14.93;4.72;;;;;;;18.61;77.36;98937.28;6119104;23;20259;-82
2023/08/02 00:52:30;;;;;;;13.63;4.50;;;;;;;18.57;77.36;98925.31;6093689;23;20036;-82
2023/08/02 00:54:57;;;;;;;9.68;4.63;;;;;;;18.53;77.43;98927.59;6118196;23;20025;-83
2023/08/02 00:57:24;;;;;;;8.15;4.20;;;;;;;18.55;77.28;98940.84;6094601;23;20025;-82
2023/08/02 00:59:51;;;;;;;16.27;3.80;;;;;;;18.52;77.60;98938.53;6070635;23;20017;-82
2023/08/02 01:02:18;;;;;;;6.45;4.32;;;;;;;18.51;77.36;98948.47;6094357;23;20056;-82
2023/08/02 01:04:44;;;;;;;16.20;4.00;;;;;;;18.49;77.69;98944.34;6117167;23;20088;-83
2023/08/02 01:07:11;;;;;;;9.07;4.00;;;;;;;18.48;77.75;98934.63;6072030;23;20099;-82
2023/08/02 01:09:48;;;;;;;5.50;3.60;;;;;;;18.45;78.04;98941.25;6093963;23;20032;-82
2023/08/02 01:12:16;;;;;;;4.18;3.05;;;;;;;18.50;77.91;98935.25;6093903;23;20080;-83
2023/08/02 01:14:47;;;;;;;5.65;4.43;;;;;;;18.46;77.83;98931.31;6070386;23;20091;-82
2023/08/02 01:17:25;;;;;;;5.20;2.78;;;;;;;18.49;76.49;98930.91;6096640;23;20021;-82
2023/08/02 01:20:03;;;;;;;5.82;3.28;;;;;;;18.44;76.05;98918.94;6119329;23;20652;-83
2023/08/02 01:22:30;;;;;;;6.57;3.22;;;;;;;18.47;76.20;98920.38;6094999;23;20041;-82
2023/08/02 01:24:59;;;;;;;4.72;3.17;;;;;;;18.45;76.68;98906.31;6070163;23;20037;-83
2023/08/02 01:27:51;;;;;;;7.43;3.40;;;;;;;18.36;77.21;98903.00;6118444;23;20035;-83
2023/08/02 01:30:20;;;;;;;4.53;3.55;;;;;;;18.40;77.30;98903.44;6094367;23;20030;-82
2023/08/02 01:32:47;;;;;;;3.33;2.63;;;;;;;18.39;77.28;98894.53;6094674;23;20165;-82
2023/08/02 01:35:15;;;;;;;5.53;2.80;;;;;;;18.41;76.76;98897.00;6070944;23;20022;-82
2023/08/02 01:37:42;;;;;;;4.55;2.60;;;;;;;18.41;76.51;98894.31;6072162;23;20116;-83
2023/08/02 01:40:10;;;;;;;4.57;2.10;;;;;;;18.41;76.29;98889.75;6120036;23;20021;-83
2023/08/02 01:42:37;;;;;;;3.72;2.05;;;;;;;18.40;75.66;98906.94;6072976;23;20024;-83
2023/08/02 01:45:05;;;;;;;6.10;1.98;;;;;;;18.38;75.26;98906.31;6118734;23;20029;-83
2023/08/02 01:47:32;;;;;;;4.57;1.88;;;;;;;18.37;75.14;98907.34;6096307;23;20024;-82
2023/08/02 01:49:59;;;;;;;5.57;2.33;;;;;;;18.36;75.23;98907.56;6120863;23;20022;-84
2023/08/02 01:52:26;;;;;;;4.53;2.00;;;;;;;18.31;75.04;98904.66;6095681;23;20025;-83
2023/08/02 01:54:52;;;;;;;4.88;2.08;;;;;;;18.28;74.93;98903.22;6071350;23;20022;-83
2023/08/02 01:57:20;;;;;;;6.55;2.40;;;;;;;18.26;74.75;98904.47;6096860;23;20044;-83
2023/08/02 01:59:46;;;;;;;5.95;2.15;;;;;;;18.26;74.84;98896.41;6071874;23;20021;-83
2023/08/02 02:02:13;;;;;;;5.80;2.22;;;;;;;18.22;74.79;98890.63;6071904;23;20026;-83
2023/08/02 02:04:40;;;;;;;4.60;2.10;;;;;;;18.22;75.08;98882.56;6095173;23;20319;-82
2023/08/02 02:07:07;;;;;;;5.43;2.22;;;;;;;18.19;75.21;98889.19;6120592;23;20470;-83
2023/08/02 02:09:35;;;;;;;5.50;2.30;;;;;;;18.18;75.00;98884.84;6095022;23;20049;-82
2023/08/02 02:12:03;;;;;;;3.72;1.80;;;;;;;18.18;75.17;98878.63;6073187;23;20399;-85
2023/08/02 02:14:30;;;;;;;9.02;2.50;;;;;;;18.15;75.30;98871.00;6095436;23;20033;-82
2023/08/02 02:16:57;;;;;;;6.45;2.38;;;;;;;18.14;75.11;98867.50;6071010;23;20032;-83
2023/08/02 02:19:24;;;;;;;7.93;2.83;;;;;;;18.13;75.05;98859.63;6070963;23;20103;-82
2023/08/02 02:21:51;;;;;;;4.65;3.20;;;;;;;18.12;75.31;98853.44;6071613;23;20025;-82
2023/08/02 02:24:18;;;;;;;9.23;5.05;;;;;;;18.11;75.81;98845.56;6095231;23;20036;-82
2023/08/02 02:26:45;;;;;;;5.82;3.35;;;;;;;18.10;76.04;98850.13;6095817;23;20072;-82
2023/08/02 02:29:11;;;;;;;4.93;3.00;;;;;;;18.08;75.86;98838.75;6072479;23;20045;-83
2023/08/02 02:31:38;;;;;;;4.90;2.72;;;;;;;18.06;75.83;98842.69;6119285;23;20446;-83
2023/08/02 02:34:05;;;;;;;4.90;2.80;;;;;;;18.05;75.85;98841.88;6119862;23;20021;-83
2023/08/02 02:36:33;;;;;;;4.32;2.97;;;;;;;18.06;75.99;98842.69;6071623;23;20022;-83
2023/08/02 02:39:00;;;;;;;6.18;3.35;;;;;;;18.04;76.05;98844.75;6119684;23;20679;-83
2023/08/02 02:41:26;;;;;;;3.58;2.85;;;;;;;18.02;76.02;98841.47;6095480;23;20048;-83
2023/08/02 02:43:54;;;;;;;6.40;3.38;;;;;;;17.99;76.15;98840.03;6119223;23;20033;-83
2023/08/02 02:46:20;;;;;;;5.90;2.97;;;;;;;18.02;76.34;98838.78;6072143;23;20088;-83
2023/08/02 02:48:47;;;;;;;4.25;2.80;;;;;;;18.01;76.48;98837.94;6095952;23;20076;-82
2023/08/02 02:51:14;;;;;;;7.95;3.53;;;;;;;17.96;76.89;98833.22;6119870;23;20033;-83
2023/08/02 02:53:41;;;;;;;6.70;3.58;;;;;;;17.98;77.09;98839.16;6070797;23;20049;-83
2023/08/02 02:56:08;;;;;;;5.30;3.05;;;;;;;17.97;77.23;98817.91;6096087;23;20414;-82
2023/08/02 02:58:34;;;;;;;6.20;3.10;;;;;;;18.01;77.52;98821.81;6071672;23;20022;-83
2023/08/02 03:01:01;;;;;;;6.78;3.10;;;;;;;18.00;77.36;98814.81;6119771;23;20033;-84
2023/08/02 03:03:28;;;;;;;5.80;3.13;;;;;;;17.96;77.20;98809.03;6119689;23;20037;-82
2023/08/02 03:05:55;;;;;;;4.63;3.10;;;;;;;17.95;77.46;98803.84;6094383;23;20025;-82
2023/08/02 03:08:22;;;;;;;6.72;3.00;;;;;;;17.93;77.22;98806.75;6071555;23;20076;-83
2023/08/02 03:10:49;;;;;;;12.43;3.40;;;;;;;17.91;77.31;98798.09;6120240;23;20096;-83
2023/08/02 03:13:16;;;;;;;3.10;2.80;;;;;;;17.91;77.60;98800.78;6070305;23;20021;-82
2023/08/02 03:15:43;;;;;;;4.90;3.15;;;;;;;17.92;77.68;98790.84;6119967;23;20018;-82
2023/08/02 03:18:10;;;;;;;3.80;2.90;;;;;;;17.95;77.81;98795.81;6094886;23;20093;-82
2023/08/02 03:20:39;;;;;;;7.45;3.15;;;;;;;17.94;77.69;98780.72;6071109;23;20457;-82
2023/08/02 03:23:07;;;;;;;6.38;3.00;;;;;;;17.94;77.72;98784.25;6143917;23;20025;-83
2023/08/02 03:25:34;;;;;;;3.83;3.38;;;;;;;17.93;77.76;98789.81;6089017;23;20049;-82
2023/08/02 03:28:01;;;;;;;4.28;2.78;;;;;;;17.92;77.68;98772.06;6119892;23;20056;-83
2023/08/02 03:30:28;;;;;;;4.45;2.50;;;;;;;17.90;77.61;98774.13;6119214;23;20686;-83
2023/08/02 03:32:55;;;;;;;5.75;3.08;;;;;;;17.88;77.28;98766.25;6070795;23;20478;-83
2023/08/02 03:35:22;;;;;;;3.92;2.88;;;;;;;17.85;77.51;98768.53;6070672;23;20052;-83
2023/08/02 03:37:48;;;;;;;5.55;3.40;;;;;;;17.86;77.85;98771.03;6095325;23;20719;-83
2023/08/02 03:40:15;;;;;;;11.85;2.92;;;;;;;17.87;77.27;98755.75;6071437;23;20031;-83
2023/08/02 03:42:42;;;;;;;4.10;2.63;;;;;;;17.87;77.38;98759.25;6118582;23;20025;-83
2023/08/02 03:45:09;;;;;;;6.75;2.50;;;;;;;17.87;76.89;98756.56;6144621;23;20051;-84
2023/08/02 03:47:36;;;;;;;6.38;2.83;;;;;;;17.87;76.92;98747.69;6095565;23;20544;-87
2023/08/02 03:50:03;;;;;;;4.63;2.65;;;;;;;17.85;77.14;98744.38;6120496;23;20029;-88
2023/08/02 03:52:30;;;;;;;8.02;2.85;;;;;;;17.84;77.32;98746.25;6146828;23;22237;-88
2023/08/02 03:54:56;;;;;;;3.55;2.63;;;;;;;17.83;77.31;98733.00;6119251;23;20079;-88
2023/08/02 03:57:23;;;;;;;7.72;2.55;;;;;;;17.83;77.44;98724.97;6095217;23;20092;-88
2023/08/02 03:59:50;;;;;;;6.65;2.20;;;;;;;17.85;77.40;98722.91;6071933;23;20018;-87
2023/08/02 04:02:17;;;;;;;7.95;2.63;;;;;;;17.86;77.80;98725.38;6072480;23;20022;-88
2023/08/02 04:04:43;;;;;;;4.05;2.42;;;;;;;17.86;77.76;98725.38;6094735;23;20088;-88
2023/08/02 04:07:10;;;;;;;6.03;2.05;;;;;;;17.86;77.50;98733.44;6095296;23;20018;-88
2023/08/02 04:09:37;;;;;;;2.95;1.92;;;;;;;17.84;77.15;98722.06;6094815;23;20021;-87
2023/08/02 04:12:04;;;;;;;4.88;1.90;;;;;;;17.85;77.47;98729.09;6119903;23;20040;-88
2023/08/02 04:14:31;;;;;;;5.43;2.08;;;;;;;17.82;77.71;98718.78;6120271;23;20021;-88
2023/08/02 04:16:58;;;;;;;3.97;1.90;;;;;;;17.83;77.35;98706.97;6095720;23;20028;-89
2023/08/02 04:19:25;;;;;;;4.38;2.10;;;;;;;17.85;77.33;98706.78;6096245;23;20033;-90
2023/08/02 04:21:52;;;;;;;2.80;2.13;;;;;;;17.80;77.65;98691.28;6096513;23;20072;-89
2023/08/02 04:24:19;;;;;;;4.57;2.33;;;;;;;17.84;77.85;98691.72;6094880;23;20052;-88
2023/08/02 04:26:46;;;;;;;3.35;1.92;;;;;;;17.81;78.29;98679.53;6119341;23;20442;-88
2023/08/02 04:29:12;;;;;;;3.20;2.20;;;;;;;17.83;77.88;98680.13;6095857;23;20029;-88
2023/08/02 04:31:39;;;;;;;4.45;2.30;;;;;;;17.83;78.15;98676.63;6094781;23;20026;-88
2023/08/02 04:34:06;;;;;;;6.53;2.58;;;;;;;17.83;78.46;98668.56;6094474;23;20407;-89
2023/08/02 04:36:33;;;;;;;12.80;2.75;;;;;;;17.82;78.75;98664.25;6072208;23;20097;-88
2023/08/02 04:39:03;;;;;;;4.93;2.55;;;;;;;17.83;78.97;98660.50;6045566;23;20099;-88
2023/08/02 04:41:30;;;;;;;10.10;2.60;;;;;;;17.85;79.18;98653.91;6096327;23;20484;-87
2023/08/02 04:43:57;;;;;;;6.88;2.10;;;;;;;17.86;79.19;98649.34;6071686;23;20044;-88
2023/08/02 04:46:25;;;;;;;4.20;2.20;;;;;;;17.83;79.15;98639.84;6071745;23;20021;-88
2023/08/02 04:48:52;;;;;;;5.82;2.85;;;;;;;17.84;79.31;98651.44;6094799;23;20022;-89
2023/08/02 04:51:19;;;;;;;2.78;2.22;;;;;;;17.85;79.31;98663.81;6095768;23;20033;-88
2023/08/02 04:53:49;;;;;;;3.83;2.53;;;;;;;17.84;79.14;98667.53;6093751;23;20520;-88
2023/08/02 04:56:16;;;;;;;7.65;2.55;;;;;;;17.85;79.60;98663.81;6070168;23;20029;-88
2023/08/02 04:58:43;;;;;;;3.13;2.40;;;;;;;17.84;79.62;98654.13;6145612;23;20041;-89
2023/08/02 05:01:10;;;;;;;5.88;2.58;;;;;;;17.84;79.90;98660.31;6095617;23;20025;-88
2023/08/02 05:03:37;;;;;;;5.78;2.50;;;;;;;17.83;79.88;98664.00;6072126;23;20394;-89
2023/08/02 05:06:05;;;;;;;3.30;2.08;;;;;;;17.85;79.96;98670.00;6069893;23;20076;-89
2023/08/02 05:08:35;;;;;;;4.22;2.00;;;;;;;17.85;80.18;98667.31;6095046;23;20052;-89
2023/08/02 05:11:05;;;;;;;5.57;2.50;;;;;;;17.83;80.40;98672.06;6071376;23;20021;-89
2023/08/02 05:13:33;;;;;;;8.38;2.80;;;;;;;17.85;80.51;98674.56;6057192;23;20113;-87
2023/08/02 05:16:00;;;;;;;13.50;3.38;;;;;;;17.85;80.62;98672.69;6094551;23;20029;-89
2023/08/02 05:18:26;;;;;;;7.28;2.67;;;;;;;17.85;80.66;98669.19;6094144;23;20045;-89
2023/08/02 05:20:53;;;;;;;6.28;2.75;;;;;;;17.85;80.09;98670.00;6070774;23;20026;-89
2023/08/02 05:23:20;;;;;;;4.85;2.92;;;;;;;17.83;79.87;98663.19;6093879;23;20017;-88
2023/08/02 05:25:47;;;;;;;9.15;2.72;;;;;;;17.83;79.92;98674.75;6092682;23;20436;-88
2023/08/02 05:28:14;;;;;;;7.53;2.97;;;;;;;17.82;79.85;98667.75;6095055;23;20026;-88
2023/08/02 05:30:41;;;;;;;8.13;2.60;;;;;;;17.83;80.66;98664.00;6095011;23;20017;-88
2023/08/02 05:33:08;;;;;;;5.28;2.92;;;;;;;17.83;80.78;98669.38;6118268;23;20088;-88
2023/08/02 05:35:34;;;;;;;6.50;2.85;;;;;;;17.85;81.26;98661.13;6071489;23;20017;-88
2023/08/02 05:38:01;;;;;;;4.93;3.05;;;;;;;17.81;81.26;98658.06;6070178;23;20079;-89
2023/08/02 05:40:28;;;;;;;5.82;2.95;;;;;;;17.85;81.05;98659.25;6094319;23;20033;-88
2023/08/02 05:42:56;;;;;;;4.40;3.75;;;;;;;17.86;81.41;98663.63;6095274;23;20021;-89
2023/08/02 05:45:23;;;;;;;11.38;2.55;;;;;;;17.84;81.80;98652.25;6070689;23;20030;-89
2023/08/02 05:47:50;;;;;;;9.63;3.20;;;;;;;17.87;81.66;98646.44;6094961;23;20021;-88
2023/08/02 05:50:17;;;;;;;6.53;3.40;;;;;;;17.87;81.41;98654.50;6071774;23;20028;-87
2023/08/02 05:52:44;;;;;;;7.35;2.92;;;;;;;17.88;81.24;98642.72;6095455;23;20031;-87
2023/08/02 05:55:11;;;;;;;7.63;3.05;;;;;;;17.89;81.20;98646.25;6070419;23;20025;-86
2023/08/02 05:57:39;;;;;;;5.72;2.47;;;;;;;17.86;81.33;98636.75;6072766;23;20028;-87
2023/08/02 06:00:07;;;;;;;7.82;3.05;;;;;;;17.88;81.83;98642.72;6071509;23;20025;-87
2023/08/02 06:02:34;;;;;;;9.73;3.20;;;;;;;17.90;81.77;98650.56;6070217;23;20033;-87
2023/08/02 06:05:02;;;;;;;4.10;3.22;;;;;;;17.90;82.26;98640.66;6070338;23;20055;-86
2023/08/02 06:07:28;;;;;;;5.22;2.75;;;;;;;17.92;82.66;98643.13;6071640;23;20380;-88
2023/08/02 06:09:55;;;;;;;4.63;3.20;;;;;;;17.90;82.60;98640.66;6095089;23;20052;-87
2023/08/02 06:12:22;;;;;;;5.45;2.55;;;;;;;17.93;83.31;98639.41;6095807;23;22692;-87
2023/08/02 06:14:49;;;;;;;7.88;3.40;;;;;;;17.90;83.47;98635.28;6095254;23;20020;-88
2023/08/02 06:17:16;;;;;;;5.53;3.38;;;;;;;17.92;83.83;98643.97;6119304;23;20052;-88
2023/08/02 06:19:43;;;;;;;4.70;2.88;;;;;;;17.92;83.96;98635.09;6094866;23;20342;-89
2023/08/02 06:22:10;;;;;;;5.18;3.10;;;;;;;17.93;84.09;98629.47;6095932;23;20382;-88
2023/08/02 06:24:37;;;;;;;3.95;2.63;;;;;;;17.93;84.36;98618.75;6096601;23;20025;-88
2023/08/02 06:27:04;;;;;;;6.25;2.42;;;;;;;17.95;85.18;98615.84;6097776;23;20025;-89
2023/08/02 06:29:31;;;;;;;7.72;2.53;;;;;;;18.00;85.31;98618.72;6096395;23;20109;-87
2023/08/02 06:31:58;;;;;;;4.70;2.50;;;;;;;18.02;85.17;98610.47;6096019;23;20406;-87
2023/08/02 06:34:24;;;;;;;6.05;2.30;;;;;;;18.02;85.29;98595.16;6096046;23;20018;-87
2023/08/02 06:36:51;;;;;;;5.10;2.35;;;;;;;18.03;85.38;98583.38;6070975;23;20382;-87
2023/08/02 06:39:18;;;;;;;3.75;2.40;;;;;;;18.05;85.69;98583.97;6095358;23;20045;-88
2023/08/02 06:41:45;;;;;;;8.07;2.67;;;;;;;18.07;85.88;98578.41;6096249;23;20018;-87
2023/08/02 06:44:13;;;;;;;4.15;2.38;;;;;;;18.05;86.01;98575.94;6070882;23;20527;-88
2023/08/02 06:46:40;;;;;;;5.18;2.53;;;;;;;18.07;86.34;98563.09;6071093;23;20397;-87
2023/08/02 06:49:07;;;;;;;5.07;2.30;;;;;;;18.08;86.21;98572.81;6072109;23;20336;-88
2023/08/02 06:51:34;;;;;;;4.68;2.50;;;;;;;18.10;86.46;98565.34;6095407;23;20021;-87
2023/08/02 06:54:01;;;;;;;3.63;2.47;;;;;;;18.09;86.89;98558.34;6144456;23;20021;-88
2023/08/02 06:56:28;;;;;;;7.60;2.50;;;;;;;18.13;87.27;98553.34;6095565;23;20042;-87
2023/08/02 06:58:55;;;;;;;6.53;2.63;;;;;;;18.15;87.38;98546.72;6120131;23;20025;-87
2023/08/02 07:01:22;;;;;;;5.40;3.15;;;;;;;18.19;87.23;98553.31;6095968;23;20026;-87
2023/08/02 07:03:50;;;;;;;5.95;2.78;;;;;;;18.23;87.34;98554.53;6071873;23;20025;-87
2023/08/02 07:06:18;;;;;;;4.32;2.78;;;;;;;18.25;87.50;98532.00;6095309;23;20044;-87
2023/08/02 07:08:45;;;;;;;7.40;2.72;;;;;;;18.30;87.47;98537.56;6071276;23;20028;-87
2023/08/02 07:11:12;;;;;;;5.07;2.78;;;;;;;18.31;87.76;98528.44;6119051;23;20113;-87
2023/08/02 07:13:56;;;;;;;4.35;2.78;;;;;;;18.31;87.76;98525.75;6077560;23;20338;-87
2023/08/02 07:16:23;;;;;;;5.50;2.80;;;;;;;18.36;87.86;98524.03;6071922;23;20080;-88
2023/08/02 07:18:50;;;;;;;5.38;3.22;;;;;;;18.36;88.14;98517.84;6095618;23;20061;-87
2023/08/02 07:21:17;;;;;;;8.15;3.25;;;;;;;18.35;88.25;98503.59;6095281;23;20028;-88
2023/08/02 07:23:44;;;;;;;7.07;2.83;;;;;;;18.37;87.94;98501.53;6094852;23;20021;-87
2023/08/02 07:26:11;;;;;;;5.40;3.33;;;;;;;18.38;88.13;98492.41;6096342;23;20097;-87
2023/08/02 07:28:38;;;;;;;12.45;2.97;;;;;;;18.39;88.09;98487.84;6119381;23;20083;-87
2023/08/02 07:31:09;;;;;;;6.53;3.50;;;;;;;18.41;88.04;98475.84;6071878;23;20461;-86
2023/08/02 07:33:36;;;;;;;6.10;3.28;;;;;;;18.41;87.86;98465.09;6069971;23;20311;-87
2023/08/02 07:36:04;;;;;;;7.82;2.85;;;;;;;18.46;88.03;98474.38;6094740;23;20401;-87
2023/08/02 07:38:31;;;;;;;4.15;3.22;;;;;;;18.47;87.86;98465.25;6094685;23;20018;-87
2023/08/02 07:40:58;;;;;;;4.40;2.83;;;;;;;18.44;87.97;98466.50;6094152;23;20033;-87
2023/08/02 07:43:24;;;;;;;11.75;3.42;;;;;;;18.47;88.07;98465.25;6070648;23;20080;-86
2023/08/02 07:45:51;;;;;;;7.82;3.22;;;;;;;18.47;88.18;98452.66;6119816;23;20099;-87
2023/08/02 07:48:18;;;;;;;8.95;3.85;;;;;;;18.51;88.51;98456.53;6118392;23;20029;-86
2023/08/02 07:50:45;;;;;;;7.22;3.03;;;;;;;18.54;88.55;98450.72;6095291;23;20072;-86
2023/08/02 07:53:11;;;;;;;6.72;3.17;;;;;;;18.54;88.39;98436.44;6091570;23;20032;-87
2023/08/02 07:55:38;;;;;;;6.57;3.80;;;;;;;18.57;88.21;98436.00;6070541;23;22274;-87
2023/08/02 07:58:05;;;;;;;6.32;2.90;;;;;;;18.57;88.14;98427.94;6093381;23;20393;-86
2023/08/02 08:00:32;;;;;;;7.28;3.25;;;;;;;18.61;88.03;98424.59;6094488;23;20025;-87
2023/08/02 08:02:59;;;;;;;3.63;2.92;;;;;;;18.60;88.35;98414.88;6095217;23;21527;-86
2023/08/02 08:05:28;;;;;;;8.45;3.40;;;;;;;18.63;88.30;98425.19;6068923;23;20390;-90
2023/08/02 08:07:55;;;;;;;6.35;3.00;;;;;;;18.61;88.55;98416.53;6070740;23;20025;-84
2023/08/02 08:10:22;;;;;;;11.07;3.15;;;;;;;18.61;88.35;98407.63;6096782;23;20096;-91
2023/08/02 08:12:48;;;;;;;4.45;3.17;;;;;;;18.61;88.44;98410.31;6050763;23;20029;-90
2023/08/02 08:15:15;;;;;;;5.20;3.40;;;;;;;18.60;88.58;98416.75;6097283;23;20028;-89
2023/08/02 08:17:42;;;;;;;7.47;3.83;;;;;;;18.58;88.97;98403.53;6073128;23;20036;-91
2023/08/02 08:20:10;;;;;;;6.68;3.38;;;;;;;18.60;89.30;98398.75;6073938;23;20466;-92
2023/08/02 08:22:36;;;;;;;5.20;3.10;;;;;;;18.61;89.36;98396.88;6097276;23;20024;-91
2023/08/02 08:25:04;;;;;;;6.60;3.45;;;;;;;18.64;89.26;98391.06;6073057;23;20084;-85
2023/08/02 08:27:30;;;;;;;5.88;3.38;;;;;;;18.64;89.74;98381.13;6118707;23;20084;-86
2023/08/02 08:29:57;;;;;;;8.23;3.25;;;;;;;18.67;89.62;98390.59;6094527;23;20030;-85
2023/08/02 08:32:27;;;;;;;6.45;3.35;;;;;;;18.70;89.90;98387.50;6092413;23;20838;-85
2023/08/02 08:34:54;;;;;;;6.53;4.07;;;;;;;18.70;90.03;98384.81;6094190;23;22148;-85
2023/08/02 08:37:21;;;;;;;6.55;3.20;;;;;;;18.70;89.69;98387.50;6094064;23;20386;-86
2023/08/02 08:39:48;;;;;;;7.50;3.83;;;;;;;18.70;90.06;98375.91;6119307;23;20026;-86
2023/08/02 08:42:33;;;;;;;5.53;4.03;;;;;;;18.71;89.97;98382.94;6097080;23;20088;-87
2023/08/02 08:45:01;;;;;;;7.22;3.67;;;;;;;18.71;90.22;98378.38;6093859;23;20026;-87
2023/08/02 08:47:28;;;;;;;6.88;3.47;;;;;;;18.71;90.13;98366.78;6095302;23;20037;-90
2023/08/02 08:49:59;;;;;;;6.32;3.88;;;;;;;18.71;90.38;98377.56;6097163;23;20048;-91
2023/08/02 08:52:29;;;;;;;8.50;3.78;;;;;;;18.68;90.19;98367.25;6096210;23;21389;-89
2023/08/02 08:54:56;;;;;;;5.57;3.53;;;;;;;18.69;90.71;98367.00;6093214;23;20346;-86
2023/08/02 08:57:23;;;;;;;5.47;3.70;;;;;;;18.69;90.62;98366.19;6118357;23;20350;-86
2023/08/02 08:59:50;;;;;;;5.93;3.78;;;;;;;18.66;90.81;98362.91;6118450;23;20029;-86
2023/08/02 09:02:17;;;;;;;9.15;3.95;;;;;;;18.65;91.40;98363.16;6094539;23;20024;-85
2023/08/02 09:04:44;;;;;;;9.27;3.67;;;;;;;18.65;91.08;98349.69;6117512;23;20033;-87
2023/08/02 09:07:11;;;;;;;7.40;3.90;;;;;;;18.63;91.47;98352.59;6118649;23;20116;-85
2023/08/02 09:09:38;;;;;;;6.55;3.97;;;;;;;18.62;91.37;98347.44;6119452;23;20025;-86
2023/08/02 09:12:05;;;;;;;6.40;4.05;;;;;;;18.62;91.49;98347.44;6117369;23;20032;-85
2023/08/02 09:14:31;;;;;;;9.20;4.78;;;;;;;18.62;91.69;98337.53;6093194;23;20464;-86
2023/08/02 09:17:02;;;;;;;8.13;4.28;;;;;;;18.61;91.81;98343.94;6093497;23;20017;-85
2023/08/02 09:19:34;;;;;;;7.07;4.15;;;;;;;18.60;92.09;98336.94;6118726;23;20080;-90
2023/08/02 09:22:08;;;;;;;6.75;3.63;;;;;;;18.58;92.50;98330.94;6072989;23;20315;-91
2023/08/02 09:24:37;;;;;;;6.35;4.90;;;;;;;18.59;92.43;98321.81;6047770;23;20096;-90
2023/08/02 09:27:14;;;;;;;9.30;4.30;;;;;;;18.58;92.75;98309.44;6094563;23;20026;-90
2023/08/02 09:29:47;;;;;;;5.70;4.22;;;;;;;18.61;92.57;98314.38;6096043;23;20017;-91
2023/08/02 09:32:15;;;;;;;7.72;4.22;;;;;;;18.64;92.78;98310.41;6048363;23;20080;-88
2023/08/02 09:34:43;;;;;;;5.57;4.35;;;;;;;18.64;93.22;98308.53;6072227;23;20029;-90
2023/08/02 09:37:12;;;;;;;7.55;4.63;;;;;;;18.70;93.31;98306.84;6096252;23;20084;-89
2023/08/02 09:39:39;;;;;;;8.23;3.75;;;;;;;18.74;93.55;98301.81;6072102;23;20450;-89
2023/08/02 09:42:15;;;;;;;7.25;3.90;;;;;;;18.69;93.58;98305.16;6093787;23;20025;-86
2023/08/02 09:44:42;;;;;;;9.27;4.22;;;;;;;18.71;93.84;98296.88;6094311;23;20041;-86
2023/08/02 09:47:10;;;;;;;7.55;4.18;;;;;;;18.71;93.88;98302.28;6092092;23;20101;-86
2023/08/02 09:49:38;;;;;;;7.07;4.32;;;;;;;18.70;94.01;98305.97;6117628;23;20021;-86
2023/08/02 09:52:07;;;;;;;6.70;4.55;;;;;;;18.68;94.17;98292.78;6070556;23;20036;-86
2023/08/02 09:54:33;;;;;;;7.95;4.65;;;;;;;18.69;94.71;98294.41;6118058;23;20025;-89
2023/08/02 09:57:02;;;;;;;7.82;5.60;;;;;;;18.68;94.59;98292.78;6072860;23;20094;-90
2023/08/02 09:59:29;;;;;;;8.80;5.40;;;;;;;18.70;95.08;98288.00;6074342;23;20045;-87
2023/08/02 10:01:57;;;;;;;6.60;4.65;;;;;;;18.72;95.38;98280.50;6098931;23;20030;-91
2023/08/02 10:04:25;;;;;;;7.68;4.53;;;;;;;18.72;95.36;98285.88;6122904;23;20025;-91
2023/08/02 10:07:02;;;;;;;7.38;4.35;;;;;;;18.70;95.90;98285.31;6098786;23;20045;-91
2023/08/02 10:09:31;;;;;;;7.18;4.55;;;;;;;18.76;95.50;98278.25;6075075;23;20041;-90
2023/08/02 10:12:07;;;;;;;8.55;4.72;;;;;;;18.74;96.24;98266.84;6049484;23;20108;-85
2023/08/02 10:14:35;;;;;;;9.40;4.72;;;;;;;18.78;96.05;98266.22;6097158;23;20036;-90
2023/08/02 10:17:03;;;;;;;8.23;4.50;;;;;;;18.80;96.42;98252.53;6073369;23;20045;-89
2023/08/02 10:19:30;;;;;;;7.20;4.32;;;;;;;18.82;96.48;98251.25;6122334;23;20587;-90
2023/08/02 10:21:58;;;;;;;5.90;4.38;;;;;;;18.84;96.56;98248.34;6073612;23;20029;-91
2023/08/02 10:24:26;;;;;;;6.40;4.28;;;;;;;18.83;96.65;98247.53;6073646;23;20096;-90
2023/08/02 10:26:57;;;;;;;7.07;4.50;;;;;;;18.85;96.67;98248.13;6095791;23;20346;-89
2023/08/02 10:29:25;;;;;;;7.65;4.50;;;;;;;18.89;96.93;98245.78;6071499;23;20024;-89
2023/08/02 10:31:52;;;;;;;8.00;4.90;;;;;;;18.89;97.46;98232.34;6073878;23;20092;-90
2023/08/02 10:34:34;;;;;;;6.45;3.90;;;;;;;18.85;97.69;98229.28;6097352;23;20022;-91
2023/08/02 10:37:02;;;;;;;5.93;4.10;;;;;;;18.90;97.16;98236.66;6097697;23;20033;-90
2023/08/02 10:39:47;;;;;;;8.25;4.22;;;;;;;18.86;98.20;98219.34;6097979;23;20044;-91
2023/08/02 10:42:19;;;;;;;6.93;4.13;;;;;;;18.90;98.08;98222.41;6094010;23;20442;-84
2023/08/02 10:44:54;;;;;;;6.30;4.10;;;;;;;18.87;98.62;98216.41;6119415;23;20049;-84
2023/08/02 10:47:27;;;;;;;6.47;4.43;;;;;;;18.90;98.26;98215.13;6119655;23;20025;-84
2023/08/02 10:49:55;;;;;;;6.50;4.18;;;;;;;18.91;98.70;98215.97;6120243;23;20021;-85
2023/08/02 10:52:41;;;;;;;6.50;4.03;;;;;;;18.90;99.06;98214.31;6120478;23;20033;-84
2023/08/02 10:55:16;;;;;;;6.35;4.10;;;;;;;18.87;99.01;98205.66;6094604;23;20446;-85
2023/08/02 10:57:55;;;;;;;9.93;4.20;;;;;;;18.87;99.86;98199.47;6119528;23;20092;-84
2023/08/02 11:00:25;;;;;;;8.45;3.80;;;;;;;18.91;99.67;98197.16;6119093;23;20100;-85
2023/08/02 11:02:52;;;;;;;6.55;4.20;;;;;;;18.91;99.93;98197.16;6070916;23;20077;-87
2023/08/02 11:05:43;;;;;;;6.63;3.83;;;;;;;18.83;100.00;98195.63;6072007;23;20405;-91
2023/08/02 11:08:11;;;;;;;5.55;4.00;;;;;;;18.90;100.00;98185.56;6072328;23;20033;-90
2023/08/02 11:10:51;;;;;;;5.07;3.30;;;;;;;18.86;100.00;98185.22;6049698;23;20135;-91
2023/08/02 11:13:18;;;;;;;5.93;4.03;;;;;;;18.91;100.00;98178.31;6072148;23;20481;-90
2023/08/02 11:15:45;;;;;;;7.15;4.32;;;;;;;18.93;100.00;98181.59;6073212;23;20025;-90
2023/08/02 11:18:13;;;;;;;6.15;4.10;;;;;;;18.93;100.00;98177.06;6073958;23;20080;-90
2023/08/02 11:20:41;;;;;;;7.75;3.83;;;;;;;18.93;100.00;98168.13;6121107;23;20114;-91
2023/08/02 11:23:24;;;;;;;6.00;4.10;;;;;;;18.89;100.00;98175.03;6073965;23;20514;-90
2023/08/02 11:25:51;;;;;;;;;;;;;;;18.81;100.00;98168.13;6098328;23;20427;-90
2023/08/02 11:28:49;;;;;;;6.90;3.88;;;;;;;18.87;100.00;98169.88;6076685;23;19917;-89
2023/08/02 11:31:17;;;;;;;6.45;4.05;;;;;;;18.92;100.00;98170.00;6120804;23;20021;-89
2023/08/02 11:33:44;;;;;;;8.85;3.83;;;;;;;18.95;100.00;98166.03;6049512;23;20029;-84
2023/08/02 11:36:10;;;;;;;7.22;3.80;;;;;;;18.96;100.00;98165.00;6120392;23;20026;-85